Time;durP1;ratioP1;P1;durP2;ratioP2;P2;SDS_P1;SDS_P2;PMS_P1;PMS_P2;Temp;Humidity;BMP_temperature;BMP_pressure;BME280_temperature;BME280_humidity;BME280_pressure;Samples;Min_cycle;Max_cycle;Signal;HPM_P1;HPM_P2
2023/07/04 00:01:18;;;;;;;10.48;4.40;;;18.20;99.90;;;;;;5035951;28;20061;-71
2023/07/04 00:03:45;;;;;;;11.23;4.45;;;18.20;99.90;;;;;;5035538;28;20029;-71
2023/07/04 00:06:15;;;;;;;13.32;5.13;;;18.30;99.90;;;;;;5036442;28;20021;-71
2023/07/04 00:08:41;;;;;;;10.80;4.43;;;18.30;99.90;;;;;;5036318;28;20026;-71
2023/07/04 00:11:08;;;;;;;10.55;4.28;;;18.40;99.90;;;;;;5035913;28;20029;-71
2023/07/04 00:13:35;;;;;;;9.52;4.57;;;18.50;99.90;;;;;;5035781;28;20088;-71
2023/07/04 00:16:05;;;;;;;9.73;4.25;;;18.50;99.90;;;;;;5035568;28;20021;-71
2023/07/04 00:18:31;;;;;;;14.60;5.30;;;18.50;99.90;;;;;;5035951;28;20137;-71
2023/07/04 00:20:59;;;;;;;10.75;5.25;;;18.60;99.90;;;;;;5036534;28;20045;-71
2023/07/04 00:23:29;;;;;;;10.70;4.88;;;18.60;99.90;;;;;;5035314;28;20036;-71
2023/07/04 00:25:55;;;;;;;9.15;4.18;;;18.50;99.90;;;;;;5035597;28;20089;-71
2023/07/04 00:28:23;;;;;;;8.88;4.90;;;18.50;99.90;;;;;;5036806;28;20029;-71
2023/07/04 00:30:52;;;;;;;14.35;4.93;;;18.50;99.90;;;;;;5039703;28;20022;-71
2023/07/04 00:33:18;;;;;;;9.43;4.88;;;18.60;99.90;;;;;;5039322;28;20018;-71
2023/07/04 00:35:45;;;;;;;11.27;5.10;;;18.50;99.90;;;;;;5039207;28;20022;-71
2023/07/04 00:38:12;;;;;;;10.13;4.75;;;18.50;99.90;;;;;;5039264;28;20052;-71
2023/07/04 00:40:38;;;;;;;11.20;4.65;;;18.30;99.90;;;;;;5038889;28;20026;-71
2023/07/04 00:43:04;;;;;;;8.60;5.03;;;18.10;99.90;;;;;;5038480;28;20109;-71
2023/07/04 00:45:35;;;;;;;11.32;5.28;;;18.00;99.90;;;;;;5038707;28;20025;-71
2023/07/04 00:48:03;;;;;;;10.35;4.68;;;17.90;99.90;;;;;;5039490;28;20022;-71
2023/07/04 00:50:34;;;;;;;8.32;4.68;;;17.80;99.90;;;;;;5038935;28;20040;-71
2023/07/04 00:53:02;;;;;;;;;;;17.80;99.90;;;;;;5039550;28;20083;-71
2023/07/04 00:55:30;;;;;;;12.48;4.80;;;17.70;99.90;;;;;;5038833;28;19912;-71
2023/07/04 00:57:55;;;;;;;8.20;4.40;;;17.70;99.90;;;;;;5039301;28;20117;-71
2023/07/04 01:00:23;;;;;;;10.90;4.35;;;17.70;99.90;;;;;;5038709;28;20045;-71
2023/07/04 01:03:04;;;;;;;9.95;4.63;;;17.70;99.90;;;;;;5038926;28;20017;-71
2023/07/04 01:05:46;;;;;;;9.50;4.53;;;17.70;99.90;;;;;;5038367;28;20022;-70
2023/07/04 01:08:36;;;;;;;10.52;4.45;;;17.60;99.90;;;;;;5038862;28;20026;-70
2023/07/04 01:11:05;;;;;;;12.13;4.82;;;17.60;99.90;;;;;;5039133;28;20056;-71
2023/07/04 01:13:34;;;;;;;9.27;4.97;;;17.50;99.90;;;;;;5039061;28;20083;-72
2023/07/04 01:16:05;;;;;;;8.98;5.00;;;17.50;99.90;;;;;;5038967;28;20028;-71
2023/07/04 01:18:31;;;;;;;9.53;4.63;;;17.50;99.90;;;;;;5038051;28;20022;-71
2023/07/04 01:21:00;;;;;;;11.95;5.50;;;17.50;99.90;;;;;;5038429;28;20025;-71
2023/07/04 01:23:42;;;;;;;11.30;5.05;;;17.40;99.90;;;;;;5038299;28;20026;-71
2023/07/04 01:26:36;;;;;;;11.43;5.13;;;17.40;99.90;;;;;;5038870;28;20029;-71
2023/07/04 01:29:05;;;;;;;10.20;4.88;;;17.30;99.90;;;;;;5038687;28;20030;-71
2023/07/04 01:31:30;;;;;;;10.10;4.82;;;17.30;99.90;;;;;;5037940;28;20071;-71
2023/07/04 01:33:58;;;;;;;13.63;4.97;;;17.30;99.90;;;;;;5038157;28;20047;-71
2023/07/04 01:36:30;;;;;;;13.65;5.32;;;17.20;99.90;;;;;;5037900;28;20041;-70
2023/07/04 01:38:55;;;;;;;9.15;4.70;;;17.10;99.90;;;;;;5038566;28;20091;-70
2023/07/04 01:41:24;;;;;;;8.70;4.40;;;17.10;99.90;;;;;;5037960;28;20124;-71
2023/07/04 01:44:03;;;;;;;12.85;4.40;;;17.10;99.90;;;;;;5037565;28;20040;-71
2023/07/04 01:46:30;;;;;;;12.50;5.65;;;17.10;99.90;;;;;;5038650;28;20037;-71
2023/07/04 01:48:56;;;;;;;12.15;5.05;;;17.00;99.90;;;;;;5037744;28;20032;-71
2023/07/04 01:51:34;;;;;;;13.60;4.90;;;17.10;99.90;;;;;;5038507;28;20017;-71
2023/07/04 01:54:01;;;;;;;16.13;5.10;;;17.00;99.90;;;;;;5037205;28;20032;-71
2023/07/04 01:56:28;;;;;;;13.30;5.32;;;17.00;99.90;;;;;;5037785;28;20117;-71
2023/07/04 01:58:54;;;;;;;11.40;4.72;;;17.00;99.90;;;;;;5037770;28;20026;-71
2023/07/04 02:01:21;;;;;;;19.20;4.60;;;17.00;99.90;;;;;;5037624;28;20021;-71
2023/07/04 02:03:46;;;;;;;9.80;4.57;;;17.10;99.90;;;;;;5037533;28;20075;-70
2023/07/04 02:06:13;;;;;;;13.20;5.18;;;17.10;99.90;;;;;;5037221;28;20030;-70
2023/07/04 02:08:39;;;;;;;12.95;4.80;;;17.20;99.90;;;;;;5037624;28;20032;-70
2023/07/04 02:11:04;;;;;;;10.13;3.97;;;17.40;99.90;;;;;;5038010;28;20089;-70
2023/07/04 02:13:30;;;;;;;11.88;5.53;;;17.50;99.90;;;;;;5037426;28;20052;-70
2023/07/04 02:15:56;;;;;;;12.32;4.70;;;17.60;99.90;;;;;;5037116;28;20045;-70
2023/07/04 02:18:21;;;;;;;11.95;5.00;;;17.60;99.90;;;;;;5037117;28;20033;-70
2023/07/04 02:20:47;;;;;;;12.48;4.85;;;17.50;99.90;;;;;;5036907;28;20049;-71
2023/07/04 02:23:13;;;;;;;10.10;4.53;;;17.40;99.90;;;;;;5037648;28;20024;-70
2023/07/04 02:25:42;;;;;;;11.38;4.65;;;17.30;99.90;;;;;;5037289;28;20049;-70
2023/07/04 02:28:08;;;;;;;11.75;4.53;;;17.30;99.90;;;;;;5036919;28;20091;-70
2023/07/04 02:30:34;;;;;;;11.70;4.57;;;17.30;99.90;;;;;;5036665;28;20032;-71
2023/07/04 02:33:00;;;;;;;10.98;4.82;;;17.40;99.90;;;;;;5037114;28;20021;-70
2023/07/04 02:35:27;;;;;;;12.30;4.40;;;17.40;99.90;;;;;;5037228;28;20035;-70
2023/07/04 02:37:53;;;;;;;13.77;4.80;;;17.40;99.90;;;;;;5037339;28;20045;-71
2023/07/04 02:40:18;;;;;;;14.00;4.90;;;17.40;99.90;;;;;;5037707;28;20091;-70
2023/07/04 02:42:44;;;;;;;12.23;4.47;;;17.40;99.90;;;;;;5036484;28;20034;-70
2023/07/04 02:45:10;;;;;;;12.88;4.03;;;17.40;99.90;;;;;;5037421;28;20025;-70
2023/07/04 02:47:35;;;;;;;8.48;4.00;;;17.40;99.90;;;;;;5036884;28;20112;-70
2023/07/04 02:50:01;;;;;;;9.20;4.18;;;17.30;99.90;;;;;;5036564;28;20125;-70
2023/07/04 02:52:27;;;;;;;12.93;5.20;;;17.30;99.90;;;;;;5036542;28;20021;-70
2023/07/04 02:54:52;;;;;;;16.92;4.55;;;17.40;99.90;;;;;;5036709;28;20092;-71
2023/07/04 02:57:18;;;;;;;11.90;4.60;;;17.40;99.90;;;;;;5037235;28;20029;-70
2023/07/04 02:59:45;;;;;;;8.68;3.95;;;17.40;99.90;;;;;;5036261;28;20025;-70
2023/07/04 03:02:10;;;;;;;17.83;4.85;;;17.30;99.90;;;;;;5036908;28;20029;-70
2023/07/04 03:04:36;;;;;;;10.73;3.75;;;17.30;99.90;;;;;;5036670;28;20079;-70
2023/07/04 03:07:03;;;;;;;8.85;4.00;;;17.30;99.90;;;;;;5036485;28;20029;-71
2023/07/04 03:09:29;;;;;;;11.10;4.22;;;17.30;99.90;;;;;;5036648;28;20099;-70
2023/07/04 03:11:55;;;;;;;11.93;4.15;;;17.30;99.90;;;;;;5036611;28;20033;-70
2023/07/04 03:14:21;;;;;;;12.70;4.05;;;17.20;99.90;;;;;;5036607;28;20093;-70
2023/07/04 03:16:47;;;;;;;11.07;4.00;;;17.20;99.90;;;;;;5036432;28;20029;-70
2023/07/04 03:19:12;;;;;;;12.10;4.13;;;17.20;99.90;;;;;;5036410;28;20032;-70
2023/07/04 03:21:38;;;;;;;12.38;4.50;;;17.20;99.90;;;;;;5036956;28;20052;-70
2023/07/04 03:24:04;;;;;;;8.50;4.00;;;17.10;99.90;;;;;;5036019;28;20025;-70
2023/07/04 03:26:29;;;;;;;10.95;3.55;;;17.00;99.90;;;;;;5036323;28;20025;-71
2023/07/04 03:28:55;;;;;;;10.18;3.67;;;17.10;99.90;;;;;;5035868;28;20080;-70
2023/07/04 03:31:21;;;;;;;13.43;4.22;;;17.20;99.90;;;;;;5036096;28;20025;-70
2023/07/04 03:33:46;;;;;;;12.73;3.60;;;17.20;99.90;;;;;;5036779;28;20017;-70
2023/07/04 03:36:12;;;;;;;10.32;3.88;;;17.20;99.90;;;;;;5035821;28;20021;-70
2023/07/04 03:38:37;;;;;;;9.68;4.03;;;17.10;99.90;;;;;;5036794;28;20034;-70
2023/07/04 03:41:03;;;;;;;8.93;3.47;;;17.00;99.90;;;;;;5035714;28;20028;-70
2023/07/04 03:43:28;;;;;;;9.63;4.22;;;16.90;99.90;;;;;;5035765;28;20037;-70
2023/07/04 03:45:54;;;;;;;10.40;4.10;;;17.00;99.90;;;;;;5036365;28;20022;-70
2023/07/04 03:48:21;;;;;;;13.23;4.43;;;17.00;99.90;;;;;;5035892;28;20049;-70
2023/07/04 03:50:47;;;;;;;8.32;3.67;;;16.90;99.90;;;;;;5037189;28;20022;-70
2023/07/04 03:53:12;;;;;;;9.75;4.00;;;16.80;99.90;;;;;;5035832;28;20028;-70
2023/07/04 03:55:38;;;;;;;11.82;4.07;;;16.80;99.90;;;;;;5036452;28;20029;-70
2023/07/04 03:58:04;;;;;;;12.60;3.80;;;16.80;99.90;;;;;;5035761;28;20029;-70
2023/07/04 04:00:29;;;;;;;12.13;3.90;;;16.80;99.90;;;;;;5035993;28;20036;-70
2023/07/04 04:02:56;;;;;;;11.40;3.67;;;16.80;99.90;;;;;;5036120;28;20033;-70
2023/07/04 04:05:21;;;;;;;7.95;3.85;;;16.90;99.90;;;;;;5040219;28;20026;-70
2023/07/04 04:07:50;;;;;;;10.95;4.18;;;16.90;99.90;;;;;;5040656;28;20025;-70
2023/07/04 04:10:16;;;;;;;15.02;4.22;;;16.90;99.90;;;;;;5039960;28;20032;-70
2023/07/04 04:12:42;;;;;;;9.68;4.10;;;17.00;99.90;;;;;;5039606;28;20017;-70
2023/07/04 04:15:08;;;;;;;13.93;4.28;;;17.10;99.90;;;;;;5039707;28;20026;-70
2023/07/04 04:17:34;;;;;;;11.80;3.83;;;17.10;99.90;;;;;;5039666;28;20024;-70
2023/07/04 04:20:02;;;;;;;9.38;4.25;;;17.20;99.90;;;;;;5039841;28;20021;-70
2023/07/04 04:22:28;;;;;;;15.32;4.15;;;17.20;99.90;;;;;;5039093;28;20109;-70
2023/07/04 04:24:53;;;;;;;11.38;4.25;;;17.10;99.90;;;;;;5039785;28;20021;-71
2023/07/04 04:27:19;;;;;;;11.43;3.72;;;17.10;99.90;;;;;;5039562;28;20026;-70
2023/07/04 04:29:44;;;;;;;11.82;3.53;;;17.10;99.90;;;;;;5039749;28;20038;-70
2023/07/04 04:32:10;;;;;;;10.02;3.38;;;17.10;99.90;;;;;;5039958;28;20091;-70
2023/07/04 04:34:35;;;;;;;9.27;4.35;;;17.00;99.90;;;;;;5039207;28;20024;-70
2023/07/04 04:37:01;;;;;;;7.60;3.42;;;17.00;99.90;;;;;;5040050;28;20121;-71
2023/07/04 04:39:28;;;;;;;12.27;3.75;;;16.90;99.90;;;;;;5039194;28;20117;-71
2023/07/04 04:41:54;;;;;;;13.93;3.55;;;16.80;99.90;;;;;;5038884;28;20112;-70
2023/07/04 04:44:20;;;;;;;9.25;3.42;;;16.80;99.90;;;;;;5063184;22;20132;-71
2023/07/04 04:46:48;;;;;;;10.10;3.55;;;16.80;99.90;;;;;;5038788;28;20025;-70
2023/07/04 04:49:17;;;;;;;14.50;4.32;;;16.80;99.90;;;;;;5038905;28;20063;-70
2023/07/04 04:51:44;;;;;;;10.18;3.20;;;16.70;99.90;;;;;;5039542;28;20045;-70
2023/07/04 04:54:13;;;;;;;12.23;3.63;;;16.70;99.90;;;;;;5038762;28;20028;-70
2023/07/04 04:56:40;;;;;;;12.90;4.18;;;16.70;99.90;;;;;;5038665;28;20025;-70
2023/07/04 04:59:08;;;;;;;7.57;3.50;;;16.70;99.90;;;;;;5038523;28;20025;-70
2023/07/04 05:01:36;;;;;;;10.50;3.30;;;16.80;99.90;;;;;;5038458;28;20032;-70
2023/07/04 05:04:02;;;;;;;9.43;3.38;;;16.80;99.90;;;;;;5038710;28;20049;-71
2023/07/04 05:06:28;;;;;;;10.75;3.33;;;16.90;99.90;;;;;;5038296;28;20107;-71
2023/07/04 05:08:53;;;;;;;9.73;3.35;;;17.00;99.90;;;;;;5038531;28;20088;-70
2023/07/04 05:11:20;;;;;;;9.27;3.25;;;17.00;99.90;;;;;;5039106;28;20033;-71
2023/07/04 05:13:46;;;;;;;12.38;3.03;;;17.10;99.90;;;;;;5038441;28;20024;-71
2023/07/04 05:16:14;;;;;;;9.32;3.42;;;17.10;99.90;;;;;;5038148;28;20021;-70
2023/07/04 05:18:41;;;;;;;9.48;3.25;;;17.10;99.90;;;;;;5038646;28;20053;-70
2023/07/04 05:21:09;;;;;;;12.35;3.40;;;17.10;99.90;;;;;;5038331;28;20033;-71
2023/07/04 05:23:39;;;;;;;14.93;3.47;;;17.10;99.90;;;;;;5038772;28;20048;-71
2023/07/04 05:26:07;;;;;;;13.23;3.47;;;17.20;99.90;;;;;;5038022;28;20030;-70
2023/07/04 05:28:33;;;;;;;15.57;3.95;;;17.20;99.90;;;;;;5039230;28;20018;-70
2023/07/04 05:31:01;;;;;;;8.65;3.63;;;17.20;99.90;;;;;;5038954;28;20029;-70
2023/07/04 05:33:27;;;;;;;12.75;3.03;;;17.20;99.90;;;;;;5038504;28;20026;-70
2023/07/04 05:36:08;;;;;;;17.08;3.10;;;17.20;99.90;;;;;;5038009;28;20032;-71
2023/07/04 05:38:35;;;;;;;12.67;3.17;;;17.20;99.90;;;;;;5037660;28;20021;-70
2023/07/04 05:41:01;;;;;;;9.93;2.72;;;17.00;99.90;;;;;;5038108;28;20260;-72
2023/07/04 05:43:28;;;;;;;11.98;2.92;;;17.10;99.90;;;;;;5037536;28;20091;-71
2023/07/04 05:45:54;;;;;;;10.10;3.35;;;17.10;99.90;;;;;;5038105;28;20021;-70
2023/07/04 05:48:20;;;;;;;7.28;2.90;;;17.10;99.90;;;;;;5038598;28;20025;-69
2023/07/04 05:50:53;;;;;;;8.27;3.22;;;17.10;99.90;;;;;;5037461;28;20017;-70
2023/07/04 05:53:23;;;;;;;12.25;3.45;;;17.10;99.90;;;;;;5038558;28;20041;-70
2023/07/04 05:55:50;;;;;;;10.05;3.17;;;17.10;99.90;;;;;;5037337;28;20060;-70
2023/07/04 05:58:16;;;;;;;11.60;3.33;;;17.10;99.90;;;;;;5038327;28;20045;-70
2023/07/04 06:00:41;;;;;;;8.27;2.83;;;17.20;99.90;;;;;;5037648;28;20052;-70
2023/07/04 06:03:07;;;;;;;10.27;3.63;;;17.30;99.90;;;;;;5038007;28;20029;-70
2023/07/04 06:05:38;;;;;;;14.35;3.22;;;17.30;99.90;;;;;;5037198;28;20103;-69
2023/07/04 06:08:04;;;;;;;8.02;2.95;;;17.40;99.90;;;;;;5037229;28;20060;-70
2023/07/04 06:10:29;;;;;;;10.23;3.08;;;17.50;99.90;;;;;;5037093;28;20092;-71
2023/07/04 06:12:55;;;;;;;10.50;3.20;;;17.40;99.90;;;;;;5037079;28;20028;-70
2023/07/04 06:15:20;;;;;;;8.75;3.33;;;17.40;99.90;;;;;;5037301;28;20109;-70
2023/07/04 06:17:46;;;;;;;7.47;2.33;;;17.40;99.90;;;;;;5037546;28;20120;-70
2023/07/04 06:20:12;;;;;;;12.38;3.50;;;17.40;99.90;;;;;;5037767;28;20033;-70
2023/07/04 06:22:38;;;;;;;10.23;2.65;;;17.40;99.90;;;;;;5037133;28;20055;-70
2023/07/04 06:25:06;;;;;;;8.60;2.50;;;17.50;99.90;;;;;;5037661;28;20112;-70
2023/07/04 06:27:32;;;;;;;10.45;2.90;;;17.60;99.90;;;;;;5036186;28;20033;-70
2023/07/04 06:29:57;;;;;;;7.63;2.67;;;17.60;99.90;;;;;;5036928;28;20030;-70
2023/07/04 06:32:23;;;;;;;7.40;2.88;;;17.70;99.90;;;;;;5037103;28;20018;-70
2023/07/04 06:34:48;;;;;;;13.73;2.67;;;17.60;99.90;;;;;;5037010;28;20014;-70
2023/07/04 06:37:14;;;;;;;6.32;2.22;;;17.80;99.90;;;;;;5036639;28;20029;-70
2023/07/04 06:39:39;;;;;;;8.63;2.40;;;17.80;99.90;;;;;;5036685;28;20029;-70
2023/07/04 06:42:05;;;;;;;7.65;2.33;;;17.90;99.90;;;;;;5036612;28;20032;-70
2023/07/04 06:44:31;;;;;;;11.80;2.60;;;17.80;99.90;;;;;;5036482;28;20038;-70
2023/07/04 06:46:56;;;;;;;11.57;2.35;;;17.70;99.90;;;;;;5037399;28;20029;-70
2023/07/04 06:49:23;;;;;;;9.95;2.17;;;17.70;99.90;;;;;;5037050;28;20044;-70
2023/07/04 06:51:48;;;;;;;8.60;2.17;;;17.80;99.90;;;;;;5036863;28;20045;-70
2023/07/04 06:54:14;;;;;;;10.95;2.40;;;17.90;99.90;;;;;;5036792;28;20013;-70
2023/07/04 06:56:39;;;;;;;7.90;2.15;;;18.00;99.90;;;;;;5037478;28;20045;-70
2023/07/04 06:59:06;;;;;;;11.80;3.05;;;18.10;99.90;;;;;;5036501;28;20029;-70
2023/07/04 07:01:32;;;;;;;8.38;2.10;;;18.20;99.90;;;;;;5036293;28;20032;-70
2023/07/04 07:03:59;;;;;;;11.88;2.13;;;18.20;99.90;;;;;;5036721;28;20036;-71
2023/07/04 07:06:25;;;;;;;7.63;2.15;;;18.20;99.90;;;;;;5036193;28;20025;-71
2023/07/04 07:08:51;;;;;;;9.38;2.60;;;18.20;99.90;;;;;;5036984;28;20032;-71
2023/07/04 07:11:19;;;;;;;4.57;2.00;;;18.30;99.90;;;;;;5036754;28;20021;-71
2023/07/04 07:13:46;;;;;;;10.82;2.22;;;18.30;99.90;;;;;;5036501;28;20018;-71
2023/07/04 07:16:20;;;;;;;10.90;2.00;;;18.30;99.90;;;;;;5036461;28;20076;-70
2023/07/04 07:18:47;;;;;;;7.63;2.15;;;18.40;99.90;;;;;;5036120;28;20060;-70
2023/07/04 07:21:18;;;;;;;9.23;2.20;;;18.50;99.90;;;;;;5036316;28;20029;-70
2023/07/04 07:23:44;;;;;;;7.55;2.10;;;18.50;99.90;;;;;;5036388;28;20112;-70
2023/07/04 07:26:11;;;;;;;7.28;2.05;;;18.50;99.90;;;;;;5036282;28;20076;-70
2023/07/04 07:28:39;;;;;;;10.55;2.50;;;18.50;99.90;;;;;;5036104;28;20036;-70
2023/07/04 07:31:11;;;;;;;7.53;2.40;;;18.50;99.90;;;;;;5036299;28;20052;-70
2023/07/04 07:33:39;;;;;;;7.85;2.28;;;18.60;99.90;;;;;;5036313;28;20025;-70
2023/07/04 07:36:23;;;;;;;10.63;2.13;;;18.70;99.90;;;;;;5037073;28;20117;-70
2023/07/04 07:38:50;;;;;;;10.60;2.40;;;18.80;99.90;;;;;;5039991;28;20028;-70
2023/07/04 07:41:17;;;;;;;10.57;2.75;;;18.90;99.90;;;;;;5040721;28;20053;-70
2023/07/04 07:43:43;;;;;;;12.48;2.67;;;18.90;99.90;;;;;;5039875;28;20061;-70
2023/07/04 07:46:10;;;;;;;18.00;2.58;;;19.00;99.90;;;;;;5040158;28;20033;-70
2023/07/04 07:48:36;;;;;;;6.20;1.90;;;19.00;99.90;;;;;;5040177;28;20025;-70
2023/07/04 07:51:02;;;;;;;4.00;1.60;;;19.00;99.90;;;;;;5040115;28;20033;-71
2023/07/04 07:53:27;;;;;;;6.45;1.88;;;19.00;99.90;;;;;;5039585;28;20026;-70
2023/07/04 07:55:53;;;;;;;6.85;2.10;;;19.20;99.90;;;;;;5040234;28;20044;-70
2023/07/04 07:58:19;;;;;;;18.35;2.60;;;19.10;99.90;;;;;;5039797;28;20021;-70
2023/07/04 08:00:44;;;;;;;8.32;2.15;;;19.20;99.90;;;;;;5039997;28;20036;-70
2023/07/04 08:03:10;;;;;;;10.75;3.20;;;19.20;99.90;;;;;;5039767;28;20026;-70
2023/07/04 08:05:40;;;;;;;10.40;2.20;;;19.30;99.90;;;;;;5039884;28;20018;-70
2023/07/04 08:08:06;;;;;;;5.15;1.85;;;19.40;99.90;;;;;;5039942;28;20029;-70
2023/07/04 08:10:41;;;;;;;8.85;2.13;;;19.30;99.90;;;;;;5039659;28;20110;-70
2023/07/04 08:13:08;;;;;;;5.07;1.67;;;19.30;99.90;;;;;;5039889;28;20035;-70
2023/07/04 08:15:33;;;;;;;10.40;1.80;;;19.30;99.90;;;;;;5040045;28;20021;-70
2023/07/04 08:18:07;;;;;;;7.65;2.08;;;19.30;99.90;;;;;;5039395;28;20040;-71
2023/07/04 08:20:33;;;;;;;9.15;2.35;;;19.30;99.90;;;;;;5040070;28;20025;-71
2023/07/04 08:22:59;;;;;;;10.23;2.00;;;19.40;99.90;;;;;;5039422;28;20099;-71
2023/07/04 08:25:24;;;;;;;4.30;1.70;;;19.50;99.90;;;;;;5040297;28;20033;-71
2023/07/04 08:27:50;;;;;;;6.47;1.92;;;19.60;99.90;;;;;;5039593;28;20055;-71
2023/07/04 08:30:15;;;;;;;7.90;2.13;;;19.60;99.90;;;;;;5039685;28;20037;-71
2023/07/04 08:32:41;;;;;;;4.78;2.22;;;19.70;99.90;;;;;;5039141;28;20020;-71
2023/07/04 08:35:07;;;;;;;6.57;2.05;;;19.90;99.90;;;;;;5039389;28;20120;-71
2023/07/04 08:37:32;;;;;;;5.70;2.30;;;20.00;99.90;;;;;;5039276;28;20025;-71
2023/07/04 08:39:58;;;;;;;10.77;2.67;;;20.10;99.90;;;;;;5038928;28;20021;-71
2023/07/04 08:42:26;;;;;;;6.93;2.33;;;20.20;99.90;;;;;;5038687;28;20029;-71
2023/07/04 08:44:54;;;;;;;8.55;2.25;;;20.20;99.90;;;;;;5038778;28;20097;-71
2023/07/04 08:47:25;;;;;;;5.57;2.05;;;20.20;99.90;;;;;;5038606;28;20025;-71
2023/07/04 08:50:20;;;;;;;10.87;2.47;;;20.30;99.90;;;;;;5037887;28;20025;-71
2023/07/04 08:52:52;;;;;;;5.00;2.08;;;20.40;99.90;;;;;;5038787;28;20022;-71
2023/07/04 08:55:18;;;;;;;9.57;2.15;;;20.60;99.90;;;;;;5038701;28;20017;-71
2023/07/04 08:57:57;;;;;;;10.63;2.58;;;20.60;99.90;;;;;;5038839;28;20021;-71
2023/07/04 09:00:30;;;;;;;9.70;2.50;;;20.60;99.90;;;;;;5038950;28;20036;-71
2023/07/04 09:03:21;;;;;;;8.07;2.20;;;20.80;99.90;;;;;;5038700;28;20026;-71
2023/07/04 09:06:15;;;;;;;6.88;2.65;;;20.80;99.90;;;;;;5038395;28;20037;-71
2023/07/04 09:09:13;;;;;;;3.15;1.98;;;20.80;99.90;;;;;;5038800;28;20079;-71
2023/07/04 09:11:39;;;;;;;5.07;2.33;;;20.80;99.90;;;;;;5038767;28;20049;-71
2023/07/04 09:14:14;;;;;;;5.13;2.17;;;20.70;99.90;;;;;;5038691;28;20021;-71
2023/07/04 09:16:45;;;;;;;9.82;2.60;;;20.80;99.90;;;;;;5039121;28;20091;-71
2023/07/04 09:19:12;;;;;;;9.27;2.65;;;20.90;99.90;;;;;;5038261;28;20026;-71
2023/07/04 09:21:37;;;;;;;9.20;2.33;;;20.90;99.90;;;;;;5038550;28;20034;-71
2023/07/04 09:24:04;;;;;;;8.77;2.75;;;21.00;99.90;;;;;;5038670;28;20033;-71
2023/07/04 09:26:52;;;;;;;6.13;2.03;;;21.00;99.90;;;;;;5037961;28;20088;-71
2023/07/04 09:29:22;;;;;;;8.13;2.83;;;21.10;99.90;;;;;;5038204;28;20120;-71
2023/07/04 09:31:58;;;;;;;8.63;2.55;;;21.20;99.90;;;;;;5038314;28;20036;-71
2023/07/04 09:34:49;;;;;;;9.73;2.92;;;21.30;99.90;;;;;;5038119;28;20018;-71
2023/07/04 09:37:18;;;;;;;9.63;2.90;;;21.30;99.90;;;;;;5037998;28;20021;-71
2023/07/04 09:39:55;;;;;;;8.93;2.95;;;21.50;99.90;;;;;;5038043;28;20032;-71
2023/07/04 09:42:23;;;;;;;12.38;3.28;;;21.50;99.90;;;;;;5037978;28;20025;-71
2023/07/04 09:44:53;;;;;;;4.55;2.50;;;21.60;99.90;;;;;;5037933;28;20033;-71
2023/07/04 09:47:25;;;;;;;6.55;2.80;;;21.70;99.90;;;;;;5038473;28;20112;-71
2023/07/04 09:50:08;;;;;;;;;;;21.60;99.90;;;;;;5038680;28;20032;-71
2023/07/04 09:52:34;;;;;;;9.23;2.97;;;21.70;99.90;;;;;;5038275;28;19905;-71
2023/07/04 09:55:16;;;;;;;4.72;2.60;;;21.70;99.90;;;;;;5038321;28;20022;-71
2023/07/04 09:57:42;;;;;;;4.30;2.20;;;21.90;99.90;;;;;;5038310;28;20022;-71
2023/07/04 10:00:26;;;;;;;9.82;2.70;;;22.00;99.90;;;;;;5038070;28;20075;-71
2023/07/04 10:02:56;;;;;;;6.45;2.95;;;22.10;99.90;;;;;;5037389;28;20025;-71
2023/07/04 10:05:30;;;;;;;4.55;2.38;;;22.20;99.90;;;;;;5038085;28;20108;-71
2023/07/04 10:08:05;;;;;;;7.55;3.22;;;22.30;99.90;;;;;;5037547;28;20025;-71
2023/07/04 10:10:34;;;;;;;7.60;2.85;;;22.30;99.90;;;;;;5037865;28;20100;-71
2023/07/04 10:12:59;;;;;;;9.18;3.33;;;22.40;99.90;;;;;;5037395;28;20017;-71
2023/07/04 10:15:36;;;;;;;9.18;3.08;;;22.60;99.90;;;;;;5037277;28;20017;-71
2023/07/04 10:18:04;;;;;;;5.30;2.95;;;22.90;99.90;;;;;;5037507;28;20033;-71
2023/07/04 10:20:36;;;;;;;7.82;3.65;;;23.00;99.90;;;;;;5036969;28;20085;-71
2023/07/04 10:23:02;;;;;;;8.82;2.70;;;23.00;99.90;;;;;;5037720;28;20029;-71
2023/07/04 10:25:30;;;;;;;7.20;3.40;;;23.00;99.90;;;;;;5036924;28;20032;-71
2023/07/04 10:28:12;;;;;;;8.15;3.38;;;23.10;99.90;;;;;;5037293;28;20052;-71
2023/07/04 10:30:41;;;;;;;6.25;3.28;;;23.20;99.90;;;;;;5036888;28;20036;-71
2023/07/04 10:33:36;;;;;;;6.65;3.50;;;23.40;99.90;;;;;;5037340;28;20045;-71
2023/07/04 10:36:02;;;;;;;5.20;3.20;;;23.40;99.90;;;;;;5036750;28;20022;-71
2023/07/04 10:38:41;;;;;;;6.88;2.92;;;23.60;99.90;;;;;;5037419;28;20021;-71
2023/07/04 10:41:13;;;;;;;9.13;3.47;;;23.90;99.90;;;;;;5037499;28;20135;-71
2023/07/04 10:43:43;;;;;;;6.20;3.65;;;24.20;99.50;;;;;;5060268;23;20094;-70
2023/07/04 10:46:15;;;;;;;9.45;3.90;;;24.40;98.30;;;;;;5037605;28;20082;-70
2023/07/04 10:48:44;;;;;;;6.65;3.40;;;24.70;98.00;;;;;;5036731;28;20053;-70
2023/07/04 10:51:22;;;;;;;6.47;3.30;;;25.10;96.70;;;;;;5036575;28;20026;-71
2023/07/04 10:53:48;;;;;;;6.32;3.70;;;25.50;95.60;;;;;;5037341;28;20028;-70
2023/07/04 10:56:29;;;;;;;6.25;3.60;;;25.70;95.80;;;;;;5036686;28;20018;-70
2023/07/04 10:59:10;;;;;;;8.45;3.08;;;26.20;92.00;;;;;;5037383;28;20028;-70
2023/07/04 11:01:51;;;;;;;5.75;3.97;;;26.30;90.10;;;;;;5036994;28;20033;-70
2023/07/04 11:04:32;;;;;;;7.65;3.72;;;26.60;87.90;;;;;;5036862;28;20075;-70
2023/07/04 11:07:03;;;;;;;5.28;2.92;;;26.40;87.00;;;;;;5036266;28;20033;-71
2023/07/04 11:09:38;;;;;;;10.20;3.65;;;26.50;87.80;;;;;;5036250;28;20045;-71
2023/07/04 11:12:16;;;;;;;5.60;3.63;;;27.10;86.50;;;;;;5036868;28;20032;-71
2023/07/04 11:14:45;;;;;;;7.10;3.38;;;27.60;82.90;;;;;;5037057;28;20017;-71
2023/07/04 11:17:17;;;;;;;6.00;3.15;;;28.00;82.50;;;;;;5035985;28;20112;-71
2023/07/04 11:19:55;;;;;;;9.73;4.25;;;28.00;80.30;;;;;;5037369;28;20025;-70
2023/07/04 11:22:52;;;;;;;8.52;4.30;;;27.60;80.40;;;;;;5036296;28;20083;-71
2023/07/04 11:25:42;;;;;;;6.00;4.45;;;28.00;79.80;;;;;;5036181;28;20022;-72
2023/07/04 11:28:22;;;;;;;8.20;4.53;;;28.10;77.50;;;;;;5036382;28;20120;-73
2023/07/04 11:30:49;;;;;;;8.60;4.20;;;28.10;78.40;;;;;;5036705;28;20036;-73
2023/07/04 11:33:31;;;;;;;11.63;4.72;;;28.10;78.50;;;;;;5036151;28;20112;-73
2023/07/04 11:36:01;;;;;;;5.75;4.35;;;28.70;75.90;;;;;;5035966;28;20018;-73
2023/07/04 11:38:27;;;;;;;7.93;4.47;;;28.70;72.90;;;;;;5036440;28;20025;-73
2023/07/04 11:40:55;;;;;;;7.88;4.57;;;28.50;73.90;;;;;;5037103;28;20029;-73
2023/07/04 11:43:24;;;;;;;8.05;4.43;;;28.60;72.30;;;;;;5036182;28;20030;-73
2023/07/04 11:45:54;;;;;;;6.55;4.45;;;28.90;71.10;;;;;;5035780;28;20025;-72
2023/07/04 11:48:19;;;;;;;8.80;5.00;;;29.20;70.80;;;;;;5036608;28;20045;-73
2023/07/04 11:50:49;;;;;;;8.25;4.68;;;29.50;69.10;;;;;;5035815;28;20060;-73
2023/07/04 11:53:23;;;;;;;8.25;4.50;;;29.40;69.10;;;;;;5035566;28;20056;-73
2023/07/04 11:56:04;;;;;;;7.97;4.95;;;29.40;69.60;;;;;;5035815;28;20034;-73
2023/07/04 11:58:30;;;;;;;8.38;5.10;;;29.60;69.70;;;;;;5035680;28;20026;-73
2023/07/04 12:01:03;;;;;;;10.60;4.82;;;29.60;68.80;;;;;;5036252;28;20056;-72
2023/07/04 12:03:28;;;;;;;10.27;5.13;;;29.30;67.90;;;;;;5035577;28;20083;-73
2023/07/04 12:05:57;;;;;;;6.43;4.25;;;29.00;69.20;;;;;;5035760;28;20022;-73
2023/07/04 12:08:47;;;;;;;7.32;5.25;;;29.20;69.10;;;;;;5036497;28;20124;-73
2023/07/04 12:11:42;;;;;;;9.63;5.15;;;29.00;67.40;;;;;;5035902;28;20089;-73
2023/07/04 12:14:12;;;;;;;7.57;5.00;;;29.10;67.60;;;;;;5027340;28;20032;-73
2023/07/04 12:16:37;;;;;;;7.25;4.55;;;28.80;67.90;;;;;;5035584;28;20018;-73
2023/07/04 12:19:06;;;;;;;7.00;4.80;;;28.60;68.70;;;;;;5035549;28;20083;-73
2023/07/04 12:21:33;;;;;;;6.43;4.57;;;28.10;69.80;;;;;;5035723;28;20060;-73
2023/07/04 12:24:03;;;;;;;8.50;4.90;;;27.50;71.30;;;;;;5036964;28;20034;-73
2023/07/04 12:26:32;;;;;;;9.07;5.63;;;27.20;71.10;;;;;;5039989;28;20057;-74
2023/07/04 12:29:02;;;;;;;15.10;5.57;;;27.30;71.80;;;;;;5039118;28;20029;-73
2023/07/04 12:31:28;;;;;;;9.35;4.57;;;27.50;70.20;;;;;;5039048;28;20060;-73
2023/07/04 12:33:53;;;;;;;6.60;4.90;;;27.40;71.20;;;;;;5039017;28;20025;-72
2023/07/04 12:36:22;;;;;;;10.38;5.20;;;27.60;70.90;;;;;;5039009;28;20028;-73
2023/07/04 12:38:55;;;;;;;7.28;4.65;;;27.70;70.70;;;;;;5038963;28;20079;-73
2023/07/04 12:41:24;;;;;;;9.18;4.95;;;27.60;70.40;;;;;;5039073;28;20021;-73
2023/07/04 12:44:02;;;;;;;9.07;4.90;;;27.50;70.80;;;;;;5039785;28;20037;-73
2023/07/04 12:46:32;;;;;;;7.55;4.70;;;27.60;69.70;;;;;;5039720;28;20018;-73
2023/07/04 12:48:59;;;;;;;9.52;5.18;;;27.60;68.30;;;;;;5038772;28;20175;-73
2023/07/04 12:51:29;;;;;;;6.63;4.80;;;27.40;68.20;;;;;;5039884;28;20028;-73
2023/07/04 12:53:57;;;;;;;13.57;5.60;;;27.20;68.90;;;;;;5039025;28;20041;-73